Folsom, NM (88419)

1:00 AM MDT on September 30, 2016 (GMT -0600)
Baca Valley | | Change Station

Elev 6645 ft 36.76 °N, 103.83 °W | Updated 0 second ago

Clear
Clear
60.0 °F
Feels Like 60.0 °F
N
16.0
Wind Variable Wind from WSW
Gusts 28.0 mph

Today
High -- | Low -- °F
--% Chance of Precip.
Yesterday
High -- | Low -- °F
Precip. -- in
Pressure 30.03 in
Visibility 10.0 miles
Clouds Clear
Dew Point 38 °F
Humidity 44%
Rainfall Not available.
Snow Depth Not available.
6:50 AM 6:39 PM
Waning Crescent, 0% visible
METAR KTAD 300654Z AUTO 20004KT 10SM CLR 17/M01 A3027 RMK AO2 SLP168 T01671006 402720094
Pressure 30.03 in
Visibility 10.0 miles
Clouds Clear
Dew Point 38 °F
Humidity 44%
Rainfall Not available.
Snow Depth Not available.
6:50 AM 6:39 PM
Waning Crescent, 0% visible
METAR KTAD 300654Z AUTO 20004KT 10SM CLR 17/M01 A3027 RMK AO2 SLP168 T01671006 402720094

10-Day Weather Forecast

Almanac

Astronomy

Sep. 30, 2016 Rise Set
Actual Time
Civil Twilight
Nautical Twilight
Astronomical Twilight
Moon
Length of Visible Light
Length of Day
Tomorrow will be .
, % of the Moon is Illuminated

Today's Extremes

State Highs State Lows

Community

WunderPhotos

Upload Photos

1,942,668 photos uploaded!

WunderBlog® & News

Nearby

Air Quality

  Air Quality AQ Index Pollutant
Not available.

Snow Depth

Station Depth Elevation

Earthquake Activity

City Distance Mag. Time & Date
Minimum magnitude displayed is 2.5.

Coastal Water Temperatures

Place Temperature

Stations

Nearby Weather Stations

Station Location Temp. Windchill Dew Point Humidity Wind Precip. Elev Updated Type
                   

Watches & Warnings

There are currently no watches in effect.